createdAt,value
2018-02-25T00:11:32.259Z,10.6
2018-02-25T00:31:50.531Z,9.7
2018-02-25T00:41:32.352Z,9.0
2018-02-25T00:51:32.064Z,6.9
2018-02-25T01:01:31.107Z,8.7
2018-02-25T01:11:31.905Z,7.5
2018-02-25T01:21:31.141Z,8.7
2018-02-25T01:31:35.096Z,7.9
2018-02-25T01:41:31.857Z,9.9
2018-02-25T02:01:31.948Z,7.8
2018-02-25T02:21:32.026Z,9.2
2018-02-25T02:31:32.167Z,10.2
2018-02-25T02:41:31.735Z,7.7
2018-02-25T02:51:32.270Z,8.2
2018-02-25T03:11:32.405Z,8.8
2018-02-25T03:21:43.192Z,9.0
2018-02-25T03:31:31.470Z,10.9
2018-02-25T03:41:31.877Z,9.0
2018-02-25T04:11:26.516Z,9.5
2018-02-25T04:21:31.935Z,8.0
2018-02-25T04:31:31.773Z,9.0
2018-02-25T04:41:25.738Z,13.3
2018-02-25T04:51:33.566Z,9.1
2018-02-25T05:01:31.323Z,9.3
2018-02-25T05:21:32.978Z,10.5
2018-02-25T05:31:31.662Z,9.4
2018-02-25T05:41:31.769Z,12.3
2018-02-25T06:11:32.034Z,10.4
2018-02-25T06:21:27.240Z,7.8
2018-02-25T06:31:32.004Z,11.1
2018-02-25T06:41:31.885Z,11.8
2018-02-25T06:51:38.329Z,10.9
2018-02-25T07:01:31.305Z,10.4
2018-02-25T07:32:18.944Z,11.3
2018-02-25T07:41:31.809Z,10.5
2018-02-25T08:01:31.895Z,11.5
2018-02-25T08:11:33.112Z,10.9
2018-02-25T08:21:31.334Z,10.6
2018-02-25T08:31:31.654Z,10.2
2018-02-25T08:41:34.129Z,10.6
2018-02-25T08:51:57.418Z,10.9
2018-02-25T09:01:32.105Z,10.6
2018-02-25T09:11:31.370Z,10.8
2018-02-25T09:21:37.543Z,12.1
2018-02-25T09:31:32.296Z,7.3
2018-02-25T09:41:31.187Z,6.5
2018-02-25T09:51:46.276Z,7.4
2018-02-25T10:01:31.257Z,8.9
2018-02-25T10:11:32.353Z,9.0
2018-02-25T10:21:26.814Z,7.5
2018-02-25T10:31:32.292Z,5.2
2018-02-25T10:41:31.644Z,5.9
2018-02-25T10:51:32.633Z,6.2
2018-02-25T11:01:45.949Z,6.3
2018-02-25T11:11:32.570Z,8.3
2018-02-25T11:21:31.838Z,7.8
2018-02-25T11:31:31.570Z,8.4
2018-02-25T11:41:32.021Z,8.3
2018-02-25T11:51:57.199Z,11.0
2018-02-25T12:01:32.281Z,9.5
2018-02-25T12:11:26.322Z,9.0
2018-02-25T12:31:31.121Z,8.3
2018-02-25T12:41:53.146Z,8.3
2018-02-25T12:51:40.942Z,10.4
2018-02-25T13:01:32.018Z,8.8
2018-02-25T13:11:31.844Z,9.8
2018-02-25T13:21:31.327Z,9.7
2018-02-25T14:11:31.682Z,7.5
2018-02-25T14:32:21.233Z,7.8
2018-02-25T14:41:31.237Z,9.0
2018-02-25T14:51:32.607Z,9.2
2018-02-25T15:01:58.088Z,10.6
2018-02-25T15:11:33.548Z,8.5
2018-02-25T22:21:31.504Z,19.5
2018-02-25T22:31:32.465Z,20.8
2018-02-25T22:41:26.974Z,20.5
2018-02-25T22:51:31.868Z,20.4
